Map

Track Data

SID SEASON NUMBER BASIN SUBBASIN NAME ISO_TIME NATURE LAT LON WMO_WIND WMO_PRES WMO_AGENCY TRACK_TYPE DIST2LAND LANDFALL IFLAG USA_AGENCY USA_ATCF_ID USA_LAT USA_LON USA_RECORD USA_STATUS USA_WIND USA_PRES USA_SSHS USA_R34_NE USA_R34_SE USA_R34_SW USA_R34_NW USA_R50_NE USA_R50_SE USA_R50_SW USA_R50_NW USA_R64_NE USA_R64_SE USA_R64_SW USA_R64_NW USA_POCI USA_ROCI USA_RMW USA_EYE TOKYO_LAT TOKYO_LON TOKYO_GRADE TOKYO_WIND TOKYO_PRES TOKYO_R50_DIR TOKYO_R50_LONG TOKYO_R50_SHORT TOKYO_R30_DIR TOKYO_R30_LONG TOKYO_R30_SHORT TOKYO_LAND CMA_LAT CMA_LON CMA_CAT CMA_WIND CMA_PRES HKO_LAT HKO_LON HKO_CAT HKO_WIND HKO_PRES NEWDELHI_LAT NEWDELHI_LON NEWDELHI_GRADE NEWDELHI_WIND NEWDELHI_PRES NEWDELHI_CI NEWDELHI_DP NEWDELHI_POCI REUNION_LAT REUNION_LON REUNION_TYPE REUNION_WIND REUNION_PRES REUNION_TNUM REUNION_CI REUNION_RMW REUNION_R34_NE REUNION_R34_SE REUNION_R34_SW REUNION_R34_NW REUNION_R50_NE REUNION_R50_SE REUNION_R50_SW REUNION_R50_NW REUNION_R64_NE REUNION_R64_SE REUNION_R64_SW REUNION_R64_NW BOM_LAT BOM_LON BOM_TYPE BOM_WIND BOM_PRES BOM_TNUM BOM_CI BOM_RMW BOM_R34_NE BOM_R34_SE BOM_R34_SW BOM_R34_NW BOM_R50_NE BOM_R50_SE BOM_R50_SW BOM_R50_NW BOM_R64_NE BOM_R64_SE BOM_R64_SW BOM_R64_NW BOM_ROCI BOM_POCI BOM_EYE BOM_POS_METHOD BOM_PRES_METHOD NADI_LAT NADI_LON NADI_CAT NADI_WIND NADI_PRES WELLINGTON_LAT WELLINGTON_LON WELLINGTON_WIND WELLINGTON_PRES DS824_LAT DS824_LON DS824_STAGE DS824_WIND DS824_PRES TD9636_LAT TD9636_LON TD9636_STAGE TD9636_WIND TD9636_PRES TD9635_LAT TD9635_LON TD9635_WIND TD9635_PRES TD9635_ROCI NEUMANN_LAT NEUMANN_LON NEUMANN_CLASS NEUMANN_WIND NEUMANN_PRES MLC_LAT MLC_LON MLC_CLASS MLC_WIND MLC_PRES USA_GUST BOM_GUST BOM_GUST_PER REUNION_GUST REUNION_GUST_PER USA_SEAHGT USA_SEARAD_NE USA_SEARAD_SE USA_SEARAD_SW USA_SEARAD_NW STORM_SPEED STORM_DIR
1998107S11084 1998 25 SI MM NOT_NAMED 1998-04-17 00:00:00 TS -10.8000 84.0000 main 1908 1867 O___________O_ jtwc_sh SH341998 -10.8000 84.0000 20 -1 -10.8000 84.0000 TC 20 11 309
1998107S11084 1998 25 SI MM NOT_NAMED 1998-04-17 03:00:00 TS -10.4625 83.5723 main 1867 1825 P___________P_ SH341998 -10.4625 83.5723 22 -1 -10.4625 83.5723 TC 22 11 304
1998107S11084 1998 25 SI MM NOT_NAMED 1998-04-17 06:00:00 TS -10.2000 83.1000 main 1825 1806 O___________O_ jtwc_sh SH341998 -10.2000 83.1000 25 -1 -10.2000 83.1000 TC 25 11 292
1998107S11084 1998 25 SI MM NOT_NAMED 1998-04-17 09:00:00 TS -10.0625 82.5576 main 1806 1788 P___________P_ SH341998 -10.0625 82.5576 25 -1 -10.0625 82.5576 TC 25 11 280
1998107S11084 1998 25 SI MM NOT_NAMED 1998-04-17 12:00:00 TS -10.0000 82.0000 main 1788 1773 O___________O_ jtwc_sh SH341998 -10.0000 82.0000 25 -1 -10.0000 82.0000 TC 25 11 277
1998107S11084 1998 25 SI MM NOT_NAMED 1998-04-17 15:00:00 TS -9.93489 81.4925 main 1773 1770 P___________P_ SH341998 -9.93489 81.4925 25 -1 -9.93489 81.4925 TC 25 10 276
1998107S11084 1998 25 SI MM NOT_NAMED 1998-04-17 18:00:00 TS -9.90000 81.0000 main 1770 1770 O___________O_ jtwc_sh SH341998 -9.90000 81.0000 25 -1 -9.90000 81.0000 TC 25 10 273
1998107S11084 1998 25 SI MM NOT_NAMED 1998-04-17 21:00:00 TS -9.88493 80.5000 main 1770 1770 P___________P_ SH341998 -9.88493 80.5000 25 -1 -9.88493 80.5000 TC 25 10 270
1998107S11084 1998 25 SI MM NOT_NAMED 1998-04-18 00:00:00 TS -9.90000 80.0000 main 1771 1771 O___________O_ jtwc_sh SH341998 -9.90000 80.0000 25 -1 -9.90000 80.0000 TC 25 10 267
1998107S11084 1998 25 SI MM NOT_NAMED 1998-04-18 03:00:00 TS -9.94243 79.5000 main 1774 1774 P___________P_ SH341998 -9.94243 79.5000 27 -1 -9.94243 79.5000 TC 27 10 264
1998107S11084 1998 25 SI MM NOT_NAMED 1998-04-18 06:00:00 TS -10.0000 79.0000 main 1790 1790 O___________O_ jtwc_sh SH341998 -10.0000 79.0000 30 -1 -10.0000 79.0000 TC 30 10 264
1998107S11084 1998 25 SI MM NOT_NAMED 1998-04-18 09:00:00 TS -10.0499 78.5000 main 1796 1796 P___________P_ SH341998 -10.0499 78.5000 30 -1 -10.0499 78.5000 TC 30 10 264
1998107S11084 1998 25 SI MM NOT_NAMED 1998-04-18 12:00:00 TS -10.1000 78.0000 main 1815 1815 O___________O_ jtwc_sh SH341998 -10.1000 78.0000 30 -1 -10.1000 78.0000 TC 30 10 264
1998107S11084 1998 25 SI MM NOT_NAMED 1998-04-18 15:00:00 TS -10.1499 77.5000 main 1825 1825 P___________P_ SH341998 -10.1499 77.5000 32 -1 -10.1499 77.5000 TC 32 10 264
1998107S11084 1998 25 SI MM NOT_NAMED 1998-04-18 18:00:00 TS -10.2000 77.0000 main 1847 1847 O___________O_ jtwc_sh SH341998 -10.2000 77.0000 35 0 -10.2000 77.0000 TC 35 10 265
1998107S11084 1998 25 SI MM NOT_NAMED 1998-04-18 21:00:00 TS -10.2424 76.4999 main 1860 1860 P___________P_ SH341998 -10.2424 76.4999 35 0 -10.2424 76.4999 TC 35 10 264
1998107S11084 1998 25 SI MM NOT_NAMED 1998-04-19 00:00:00 TS -10.3000 76.0000 main 1885 1885 O___________O_ jtwc_sh SH341998 -10.3000 76.0000 35 0 -10.3000 76.0000 TC 35 10 261
1998107S11084 1998 25 SI MM NOT_NAMED 1998-04-19 03:00:00 TS -10.3923 75.5150 main 1911 1911 P___________P_ SH341998 -10.3923 75.5150 37 0 -10.3923 75.5150 TC 37 10 259
1998107S11084 1998 25 SI MM NOT_NAMED 1998-04-19 06:00:00 TS -10.5000 75.0000 main 1939 1939 O___________O_ jtwc_sh SH341998 -10.5000 75.0000 40 0 -10.5000 75.0000 TC 40 11 259
1998107S11084 1998 25 SI MM NOT_NAMED 1998-04-19 09:00:00 TS -10.5924 74.4224 main 1971 1971 P___________P_ SH341998 -10.5924 74.4224 40 0 -10.5924 74.4224 TC 40 12 260
1998107S11084 1998 25 SI MM NOT_NAMED 1998-04-19 12:00:00 TS -10.7000 73.8000 main 2005 1958 O___________O_ jtwc_sh SH341998 -10.7000 73.8000 40 0 -10.7000 73.8000 TC 40 13 258
1998107S11084 1998 25 SI MM NOT_NAMED 1998-04-19 15:00:00 TS -10.8499 73.1650 main 1958 1882 P___________P_ SH341998 -10.8499 73.1650 40 0 -10.8499 73.1650 TC 40 13 257
1998107S11084 1998 25 SI MM NOT_NAMED 1998-04-19 18:00:00 TS -11.0000 72.5000 main 1882 1813 O___________O_ jtwc_sh SH341998 -11.0000 72.5000 40 0 -11.0000 72.5000 TC 40 14 259
1998107S11084 1998 25 SI MM NOT_NAMED 1998-04-19 21:00:00 TS -11.1074 71.7999 main 1813 1745 P___________P_ SH341998 -11.1074 71.7999 40 0 -11.1074 71.7999 TC 40 14 262
1998107S11084 1998 25 SI MM NOT_NAMED 1998-04-20 00:00:00 TS -11.2000 71.1000 main 1745 1686 O___________O_ jtwc_sh SH341998 -11.2000 71.1000 40 0 -11.2000 71.1000 TC 40 13 262
1998107S11084 1998 25 SI MM NOT_NAMED 1998-04-20 03:00:00 TS -11.2923 70.4499 main 1677 1619 P___________P_ SH341998 -11.2923 70.4499 40 0 -11.2923 70.4499 TC 40 13 261
1998107S11084 1998 25 SI MM NOT_NAMED 1998-04-20 06:00:00 TS -11.4000 69.8000 main 1619 1552 O___________O_ jtwc_sh SH341998 -11.4000 69.8000 40 0 -11.4000 69.8000 TC 40 14 259
1998107S11084 1998 25 SI MM NOT_NAMED 1998-04-20 09:00:00 TS -11.5575 69.0851 main 1545 1480 P___________P_ SH341998 -11.5575 69.0851 37 0 -11.5575 69.0851 TC 37 14 258
1998107S11084 1998 25 SI MM NOT_NAMED 1998-04-20 12:00:00 TS -11.7000 68.4000 main 1480 1423 O___________O_ jtwc_sh SH341998 -11.7000 68.4000 35 0 -11.7000 68.4000 TC 35 13 260
1998107S11084 1998 25 SI MM NOT_NAMED 1998-04-20 15:00:00 TS -11.7723 67.8124 main 1423 1383 P___________P_ SH341998 -11.7723 67.8124 35 0 -11.7723 67.8124 TC 35 11 265
1998107S11084 1998 25 SI MM NOT_NAMED 1998-04-20 18:00:00 TS -11.8000 67.3000 main 1383 1352 O___________O_ jtwc_sh SH341998 -11.8000 67.3000 35 0 -11.8000 67.3000 TC 35 9 268
1998107S11084 1998 25 SI MM NOT_NAMED 1998-04-20 21:00:00 TS -11.8073 66.8500 main 1344 1314 P___________P_ SH341998 -11.8073 66.8500 35 0 -11.8073 66.8500 TC 35 9 270
1998107S11084 1998 25 SI MM NOT_NAMED 1998-04-21 00:00:00 TS -11.8000 66.4000 main 1314 1276 O___________O_ jtwc_sh SH341998 -11.8000 66.4000 35 0 -11.8000 66.4000 TC 35 10 270
1998107S11084 1998 25 SI MM NOT_NAMED 1998-04-21 03:00:00 TS -11.8001 65.8500 main 1276 1233 P___________P_ SH341998 -11.8001 65.8500 35 0 -11.8001 65.8500 TC 35 11 270
1998107S11084 1998 25 SI MM NOT_NAMED 1998-04-21 06:00:00 TS -11.8000 65.3000 main 1233 1206 O___________O_ jtwc_sh SH341998 -11.8000 65.3000 35 0 -11.8000 65.3000 TC 35 10 270
1998107S11084 1998 25 SI MM NOT_NAMED 1998-04-21 09:00:00 TS -11.7999 64.8350 main 1199 1172 P___________P_ SH341998 -11.7999 64.8350 35 0 -11.7999 64.8350 TC 35 9 270
1998107S11084 1998 25 SI MM NOT_NAMED 1998-04-21 12:00:00 TS -11.8000 64.4000 main 1172 1147 O___________O_ jtwc_sh SH341998 -11.8000 64.4000 35 0 -11.8000 64.4000 TC 35 9 270
1998107S11084 1998 25 SI MM NOT_NAMED 1998-04-21 15:00:00 TS -11.7999 63.9650 main 1147 1116 P___________P_ SH341998 -11.7999 63.9650 35 0 -11.7999 63.9650 TC 35 9 270
1998107S11084 1998 25 SI MM NOT_NAMED 1998-04-21 18:00:00 TS -11.8000 63.5000 main 1116 1087 O___________O_ jtwc_sh SH341998 -11.8000 63.5000 35 0 -11.8000 63.5000 TC 35 10 271
1998107S11084 1998 25 SI MM NOT_NAMED 1998-04-21 21:00:00 TS -11.7774 62.9798 main 1087 1055 P___________P_ SH341998 -11.7774 62.9798 35 0 -11.7774 62.9798 TC 35 11 270
1998107S11084 1998 25 SI MM NOT_NAMED 1998-04-22 00:00:00 TS -11.8000 62.4000 main 1055 1016 O___________O_ jtwc_sh SH341998 -11.8000 62.4000 35 0 -11.8000 62.4000 TC 35 12 263
1998107S11084 1998 25 SI MM NOT_NAMED 1998-04-22 03:00:00 TS -11.9273 61.7800 main 1016 966 P___________P_ SH341998 -11.9273 61.7800 32 -1 -11.9273 61.7800 TC 32 13 257
1998107S11084 1998 25 SI MM NOT_NAMED 1998-04-22 06:00:00 TS -12.1000 61.1000 main 966 929 O___________O_ jtwc_sh SH341998 -12.1000 61.1000 30 -1 -12.1000 61.1000 TC 30 14 257
1998107S11084 1998 25 SI MM NOT_NAMED 1998-04-22 09:00:00 TS -12.2580 60.3651 main 919 885 P___________P_ SH341998 -12.2580 60.3651 30 -1 -12.2580 60.3651 TC 30 15 258
1998107S11084 1998 25 SI MM NOT_NAMED 1998-04-22 12:00:00 TS -12.4000 59.6000 main 885 O___________O_ jtwc_sh SH341998 -12.4000 59.6000 30 -1 -12.4000 59.6000 TC 30 15 259

About IBTrACS Database

This database is a web-friendly format of International Best Track Archive for Climate Stewardship (IBTrACS), a global best track data archive curated by NOAA dating back to 1842.

Updated: 2021-12-08